Time;durP1;ratioP1;P1;durP2;ratioP2;P2;SDS_P1;SDS_P2;PMS_P1;PMS_P2;Temp;Humidity;BMP_temperature;BMP_pressure;BME280_temperature;BME280_humidity;BME280_pressure;Samples;Min_cycle;Max_cycle;Signal;HPM_P1;HPM_P2
2023/04/16 11:06:36;;;;;;;25.75;13.88;;;14.50;99.90;;;;;;5109614;27;20319;-63
2023/04/16 11:09:02;;;;;;;28.58;15.15;;;14.40;99.90;;;;;;5109443;28;20038;-63
2023/04/16 11:11:37;;;;;;;32.20;15.50;;;14.40;99.90;;;;;;5109555;28;20023;-64
2023/04/16 11:14:03;;;;;;;30.38;16.33;;;14.50;99.90;;;;;;5109830;28;20062;-63
2023/04/16 11:16:30;;;;;;;29.90;15.95;;;14.50;99.90;;;;;;5109064;28;20160;-61
2023/04/16 11:18:56;;;;;;;32.65;17.17;;;14.60;99.90;;;;;;5109465;28;20022;-63
2023/04/16 11:21:23;;;;;;;25.83;13.73;;;14.70;99.90;;;;;;5109877;28;20028;-63
2023/04/16 11:23:50;;;;;;;25.10;14.23;;;14.80;99.90;;;;;;5108860;28;20024;-63
2023/04/16 11:26:34;;;;;;;27.85;13.93;;;15.00;99.90;;;;;;5109748;28;20028;-63
2023/04/16 11:28:59;;;;;;;24.48;13.45;;;15.30;99.90;;;;;;5108225;28;20059;-63
2023/04/16 11:31:26;;;;;;;24.50;14.43;;;15.30;99.90;;;;;;5109216;28;20468;-63
2023/04/16 11:33:51;;;;;;;25.13;13.93;;;15.30;99.90;;;;;;5109511;28;20023;-63
2023/04/16 11:36:17;;;;;;;27.30;14.88;;;15.30;99.90;;;;;;5108857;28;20016;-62
2023/04/16 11:38:43;;;;;;;27.48;13.57;;;15.50;99.90;;;;;;5107860;28;20020;-61
2023/04/16 11:41:09;;;;;;;28.90;15.13;;;15.50;99.90;;;;;;5109368;28;20023;-61
2023/04/16 11:43:35;;;;;;;25.55;14.52;;;15.70;99.90;;;;;;5108407;28;20111;-62
2023/04/16 11:46:06;;;;;;;23.17;13.07;;;15.80;99.90;;;;;;5108987;28;20110;-62
2023/04/16 11:48:49;;;;;;;28.38;13.55;;;15.80;99.90;;;;;;5108843;28;20028;-61
2023/04/16 11:51:15;;;;;;;27.38;14.18;;;15.80;99.90;;;;;;5108592;28;20016;-62
2023/04/16 11:53:53;;;;;;;26.23;13.77;;;15.80;99.90;;;;;;5108772;28;20426;-61
2023/04/16 11:56:26;;;;;;;23.42;13.52;;;15.80;99.90;;;;;;5109015;28;20091;-62
2023/04/16 11:59:09;;;;;;;21.90;13.25;;;15.80;99.90;;;;;;5108117;28;20107;-61
2023/04/16 12:01:36;;;;;;;25.00;13.52;;;15.70;99.90;;;;;;5108883;28;20020;-62
2023/04/16 12:04:02;;;;;;;26.02;13.15;;;15.60;99.90;;;;;;5108689;28;20079;-61
2023/04/16 12:06:28;;;;;;;19.60;12.18;;;15.40;99.90;;;;;;5107612;28;20044;-62
2023/04/16 12:08:53;;;;;;;23.10;13.15;;;15.40;99.90;;;;;;5107445;28;20027;-61
2023/04/16 12:11:19;;;;;;;27.55;13.40;;;15.50;99.90;;;;;;5108799;28;20071;-63
2023/04/16 12:14:07;;;;;;;25.42;13.30;;;15.60;99.90;;;;;;5108113;28;20027;-62
2023/04/16 12:16:33;;;;;;;24.77;13.38;;;15.70;99.90;;;;;;5102606;28;20029;-61
2023/04/16 12:19:04;;;;;;;24.73;13.60;;;15.80;99.90;;;;;;5094308;28;20074;-60
2023/04/16 12:21:50;;;;;;;24.67;13.23;;;16.00;99.90;;;;;;5094847;28;20506;-61
2023/04/16 12:24:22;;;;;;;32.75;14.15;;;16.10;99.90;;;;;;5094775;28;20457;-60
2023/04/16 12:26:56;;;;;;;22.90;12.65;;;16.20;99.90;;;;;;5092612;28;20024;-60
2023/04/16 12:29:26;;;;;;;20.90;11.55;;;16.10;99.90;;;;;;5094737;28;20051;-61
2023/04/16 12:31:52;;;;;;;22.35;13.45;;;16.20;99.90;;;;;;5093404;28;20024;-60
2023/04/16 12:34:20;;;;;;;26.73;13.68;;;16.20;99.90;;;;;;5092673;28;20012;-61
2023/04/16 12:36:48;;;;;;;24.33;12.35;;;16.20;99.90;;;;;;5094204;28;20377;-62
2023/04/16 12:39:15;;;;;;;22.40;12.40;;;16.20;99.90;;;;;;5093373;28;20361;-60
2023/04/16 12:41:42;;;;;;;22.45;11.88;;;16.20;99.90;;;;;;5093835;28;20027;-62
2023/04/16 12:44:15;;;;;;;24.10;12.57;;;16.20;99.90;;;;;;5094641;28;20024;-60
2023/04/16 12:46:41;;;;;;;19.73;11.27;;;16.20;99.90;;;;;;5093700;28;20028;-61
2023/04/16 12:49:08;;;;;;;20.83;12.15;;;16.20;99.90;;;;;;5094376;28;20027;-62
2023/04/16 12:51:35;;;;;;;23.35;12.63;;;16.10;99.90;;;;;;5094192;28;20383;-60
2023/04/16 12:54:02;;;;;;;21.38;12.75;;;15.90;99.90;;;;;;5093279;28;20484;-62
2023/04/16 12:56:29;;;;;;;22.88;12.07;;;15.80;99.90;;;;;;5093966;28;20016;-61
2023/04/16 12:58:55;;;;;;;24.63;12.02;;;15.70;99.90;;;;;;5094235;28;20073;-61
2023/04/16 13:01:21;;;;;;;22.52;11.38;;;15.70;99.90;;;;;;5093560;28;20020;-62
2023/04/16 13:03:48;;;;;;;22.67;12.25;;;15.60;99.90;;;;;;5094034;28;20024;-63
2023/04/16 13:06:15;;;;;;;30.38;13.77;;;15.40;99.90;;;;;;5084322;28;20044;-60
2023/04/16 13:08:44;;;;;;;19.92;11.55;;;15.20;99.90;;;;;;5084625;28;20023;-61
2023/04/16 13:11:11;;;;;;;24.63;12.50;;;15.10;99.90;;;;;;5091979;28;20024;-61
2023/04/16 13:13:36;;;;;;;24.50;12.15;;;15.00;99.90;;;;;;5073057;28;20107;-61
2023/04/16 13:16:05;;;;;;;25.25;12.63;;;15.00;99.90;;;;;;5071914;28;20130;-61
2023/04/16 13:18:31;;;;;;;23.10;11.65;;;15.10;99.90;;;;;;5072729;28;20020;-62
2023/04/16 13:20:57;;;;;;;28.42;12.60;;;15.20;99.90;;;;;;5073359;28;20096;-62
2023/04/16 13:23:23;;;;;;;24.63;11.90;;;15.20;99.90;;;;;;5073459;28;20469;-61
2023/04/16 13:25:48;;;;;;;25.92;13.38;;;15.30;99.90;;;;;;5093302;28;20039;-61
2023/04/16 13:28:14;;;;;;;25.60;13.13;;;15.20;99.90;;;;;;5091340;28;20028;-62
2023/04/16 13:30:40;;;;;;;24.23;12.48;;;15.30;99.90;;;;;;5092116;28;20028;-62
2023/04/16 13:33:06;;;;;;;21.30;12.05;;;15.20;99.90;;;;;;5093281;28;20017;-62
2023/04/16 13:35:32;;;;;;;24.25;12.60;;;15.20;99.90;;;;;;5092254;28;20024;-63
2023/04/16 13:37:57;;;;;;;27.27;12.57;;;15.10;99.90;;;;;;5090629;28;20070;-61
2023/04/16 13:40:23;;;;;;;20.75;11.98;;;15.20;99.90;;;;;;5093202;28;20085;-63
2023/04/16 13:42:48;;;;;;;21.23;13.02;;;15.20;99.90;;;;;;5092612;28;20023;-62
2023/04/16 13:45:14;;;;;;;20.10;11.52;;;15.20;99.90;;;;;;5092917;28;20039;-62
2023/04/16 13:47:43;;;;;;;22.73;11.38;;;15.20;99.90;;;;;;5092680;28;20411;-62
2023/04/16 13:50:09;;;;;;;22.90;11.68;;;15.20;99.90;;;;;;5092377;28;20801;-61
2023/04/16 13:52:35;;;;;;;27.08;13.02;;;15.20;99.90;;;;;;5092768;28;20047;-62
2023/04/16 13:55:01;;;;;;;25.27;12.27;;;15.10;99.90;;;;;;5092723;28;20055;-61
2023/04/16 13:57:27;;;;;;;23.05;12.00;;;15.00;99.90;;;;;;5092148;28;20438;-61
2023/04/16 13:59:53;;;;;;;17.98;11.85;;;15.00;99.90;;;;;;5092759;28;20081;-62
2023/04/16 14:02:20;;;;;;;24.90;13.13;;;15.20;99.90;;;;;;5091640;28;20028;-61
2023/04/16 14:04:45;;;;;;;17.30;11.30;;;15.30;99.90;;;;;;5091191;28;20048;-63
2023/04/16 14:07:11;;;;;;;24.88;11.45;;;15.50;99.90;;;;;;5092694;28;20457;-62
2023/04/16 14:09:36;;;;;;;23.27;12.52;;;15.50;99.90;;;;;;5092207;28;20375;-62
2023/04/16 14:12:02;;;;;;;21.25;11.20;;;15.60;99.90;;;;;;5092352;28;20051;-62
2023/04/16 14:14:28;;;;;;;20.77;11.88;;;15.60;99.90;;;;;;5091468;28;20388;-62
2023/04/16 14:16:54;;;;;;;19.23;11.45;;;15.50;99.90;;;;;;5091557;28;20031;-63
2023/04/16 14:19:20;;;;;;;22.08;11.65;;;15.50;99.90;;;;;;5090972;28;20024;-62
2023/04/16 14:21:45;;;;;;;19.50;11.27;;;15.60;99.90;;;;;;5092444;28;20039;-62
2023/04/16 14:24:11;;;;;;;23.63;11.40;;;15.60;99.90;;;;;;5092425;28;20024;-62
2023/04/16 14:26:36;;;;;;;23.00;11.38;;;15.70;99.90;;;;;;5091229;28;20040;-62
2023/04/16 14:29:02;;;;;;;23.63;12.20;;;15.70;99.90;;;;;;5092149;28;20016;-62
2023/04/16 14:31:27;;;;;;;23.58;11.52;;;15.70;99.90;;;;;;5092272;28;20431;-61
2023/04/16 14:33:53;;;;;;;20.67;11.48;;;15.60;99.90;;;;;;5091491;28;20055;-63
2023/04/16 14:36:19;;;;;;;19.83;12.32;;;15.50;99.90;;;;;;5091946;28;20024;-63
2023/04/16 14:38:46;;;;;;;22.45;11.63;;;15.40;99.90;;;;;;5092118;28;20419;-63
2023/04/16 14:41:12;;;;;;;23.88;11.77;;;15.40;99.90;;;;;;5091573;28;20491;-61
2023/04/16 14:43:39;;;;;;;20.10;11.48;;;15.40;99.90;;;;;;5091763;28;20024;-64
2023/04/16 14:46:05;;;;;;;18.60;9.80;;;15.50;99.90;;;;;;5091663;28;20028;-63
2023/04/16 14:48:31;;;;;;;20.15;10.25;;;15.50;99.90;;;;;;5091734;28;20488;-62
2023/04/16 14:50:56;;;;;;;17.42;10.38;;;15.50;99.90;;;;;;5077736;28;20060;-63
2023/04/16 14:53:23;;;;;;;19.60;11.00;;;15.50;99.90;;;;;;5071237;28;20131;-63
2023/04/16 14:55:48;;;;;;;18.05;9.73;;;15.50;99.90;;;;;;5082847;28;20028;-63
2023/04/16 14:58:14;;;;;;;20.25;10.80;;;15.60;99.90;;;;;;5092226;28;20040;-63
2023/04/16 15:00:40;;;;;;;22.35;9.68;;;15.60;99.90;;;;;;5091043;28;20028;-62
2023/04/16 15:03:05;;;;;;;21.08;10.13;;;15.50;99.90;;;;;;5092029;28;20142;-63
2023/04/16 15:05:31;;;;;;;19.00;10.32;;;15.60;99.90;;;;;;5091503;28;20052;-64
2023/04/16 15:07:57;;;;;;;15.90;9.38;;;15.70;99.90;;;;;;5091424;28;20475;-62
2023/04/16 15:10:22;;;;;;;18.80;10.10;;;15.80;99.90;;;;;;5090469;28;20036;-64
2023/04/16 15:12:48;;;;;;;19.00;10.27;;;15.70;99.90;;;;;;5091815;28;20035;-61
2023/04/16 15:15:13;;;;;;;18.35;9.95;;;15.70;99.90;;;;;;5090764;28;20027;-63
2023/04/16 15:17:39;;;;;;;16.23;9.85;;;15.70;99.90;;;;;;5091405;28;20541;-64
2023/04/16 15:20:08;;;;;;;15.07;10.00;;;15.60;99.90;;;;;;5090886;28;20052;-63
2023/04/16 15:22:34;;;;;;;17.30;10.27;;;15.40;99.90;;;;;;5089995;28;20032;-63
2023/04/16 15:24:59;;;;;;;21.23;10.52;;;15.20;99.90;;;;;;5091646;28;20345;-63
2023/04/16 15:27:25;;;;;;;16.63;9.82;;;15.10;99.90;;;;;;5091089;28;20461;-63
2023/04/16 15:29:52;;;;;;;18.35;10.85;;;15.00;99.90;;;;;;5089694;28;20020;-63
2023/04/16 15:32:18;;;;;;;19.73;10.57;;;15.00;99.90;;;;;;5091966;28;20016;-64
2023/04/16 15:34:45;;;;;;;18.50;9.60;;;14.80;99.90;;;;;;5091494;28;20107;-63
2023/04/16 15:37:11;;;;;;;20.38;10.95;;;14.70;99.90;;;;;;5091237;28;20393;-63
2023/04/16 15:39:36;;;;;;;21.15;11.07;;;14.70;99.90;;;;;;5089991;28;20491;-63
2023/04/16 15:42:05;;;;;;;15.90;9.88;;;14.70;99.90;;;;;;5092018;28;20039;-63
2023/04/16 15:44:33;;;;;;;20.83;10.73;;;14.70;99.90;;;;;;5090166;28;20467;-62
2023/04/16 15:46:59;;;;;;;20.35;9.73;;;14.70;99.90;;;;;;5090506;28;20395;-62
2023/04/16 15:49:25;;;;;;;19.42;9.90;;;14.70;99.90;;;;;;5087208;28;20016;-62
2023/04/16 15:51:51;;;;;;;18.38;10.50;;;14.80;99.90;;;;;;5091897;28;20028;-63
2023/04/16 15:54:17;;;;;;;16.00;10.50;;;14.80;99.90;;;;;;5095451;28;20095;-62
2023/04/16 15:56:43;;;;;;;20.45;11.50;;;14.80;99.90;;;;;;5094772;28;20111;-62
2023/04/16 15:59:09;;;;;;;25.00;11.05;;;14.80;99.90;;;;;;5093730;28;20073;-63
2023/04/16 16:01:34;;;;;;;19.67;10.90;;;14.70;99.90;;;;;;5095267;28;20028;-63
2023/04/16 16:04:00;;;;;;;18.88;10.52;;;14.70;99.90;;;;;;5094220;28;20057;-63
2023/04/16 16:06:26;;;;;;;16.60;10.00;;;14.70;99.90;;;;;;5094790;28;20051;-63
2023/04/16 16:08:53;;;;;;;21.25;10.95;;;14.90;99.90;;;;;;5094354;28;20380;-64
2023/04/16 16:11:19;;;;;;;17.63;10.27;;;15.20;99.90;;;;;;5093571;28;20035;-63
2023/04/16 16:13:45;;;;;;;20.48;10.38;;;15.30;99.90;;;;;;5094660;28;20047;-63
2023/04/16 16:16:10;;;;;;;18.38;10.32;;;15.20;99.90;;;;;;5094517;28;20059;-63
2023/04/16 16:18:36;;;;;;;16.30;9.43;;;15.10;99.90;;;;;;5092938;28;20028;-61
2023/04/16 16:21:02;;;;;;;23.35;10.38;;;14.90;99.90;;;;;;5095053;28;20032;-62
2023/04/16 16:23:28;;;;;;;21.67;10.93;;;14.80;99.90;;;;;;5093976;28;20012;-61
2023/04/16 16:25:54;;;;;;;19.30;10.18;;;14.60;99.90;;;;;;5094026;28;20071;-62
2023/04/16 16:28:20;;;;;;;19.25;10.23;;;14.50;99.90;;;;;;5093799;28;20027;-62
2023/04/16 16:30:46;;;;;;;21.20;10.93;;;14.50;99.90;;;;;;5093799;28;20027;-62
2023/04/16 16:33:12;;;;;;;20.75;10.63;;;14.50;99.90;;;;;;5094657;28;20020;-62
2023/04/16 16:35:38;;;;;;;21.05;10.40;;;14.30;99.90;;;;;;5094281;28;20035;-63
2023/04/16 16:38:04;;;;;;;17.77;10.30;;;14.40;99.90;;;;;;5093671;28;20020;-63
2023/04/16 16:40:29;;;;;;;21.92;10.38;;;14.40;99.90;;;;;;5094730;28;20349;-61
2023/04/16 16:42:55;;;;;;;16.90;10.55;;;14.50;99.90;;;;;;5094304;28;20028;-63
2023/04/16 16:45:21;;;;;;;21.25;10.38;;;14.60;99.90;;;;;;5093948;28;20040;-63
2023/04/16 16:47:47;;;;;;;21.60;10.90;;;15.00;99.90;;;;;;5094237;28;20028;-62
2023/04/16 16:50:13;;;;;;;20.23;10.07;;;15.50;99.90;;;;;;5094053;28;20153;-62
2023/04/16 16:52:38;;;;;;;19.27;10.35;;;15.70;99.90;;;;;;5093569;28;20107;-62
2023/04/16 16:55:07;;;;;;;16.25;9.73;;;16.10;99.90;;;;;;5094337;28;20491;-62
2023/04/16 16:57:33;;;;;;;20.35;10.20;;;16.30;99.90;;;;;;5093610;28;20032;-62
2023/04/16 16:59:58;;;;;;;21.63;10.18;;;16.00;99.90;;;;;;5091800;28;20353;-63
2023/04/16 17:02:24;;;;;;;19.98;9.82;;;15.60;99.90;;;;;;5094144;28;20460;-62
2023/04/16 17:04:51;;;;;;;18.27;9.98;;;15.20;99.90;;;;;;5093322;28;20579;-62
2023/04/16 17:07:17;;;;;;;23.67;9.80;;;14.90;99.90;;;;;;5092466;28;20035;-62
2023/04/16 17:09:42;;;;;;;20.52;10.80;;;14.80;99.90;;;;;;5092807;28;20388;-61
2023/04/16 17:12:08;;;;;;;16.73;9.75;;;14.80;99.90;;;;;;5092566;28;20028;-62
2023/04/16 17:14:34;;;;;;;19.40;10.95;;;14.90;99.90;;;;;;5091595;28;20016;-62
2023/04/16 17:17:00;;;;;;;16.55;9.70;;;14.90;99.90;;;;;;5092212;28;20028;-62
2023/04/16 17:19:26;;;;;;;20.50;10.40;;;14.90;99.90;;;;;;5092315;28;20096;-62
2023/04/16 17:21:52;;;;;;;19.35;10.23;;;14.70;99.90;;;;;;5093824;28;20081;-62
2023/04/16 17:24:18;;;;;;;20.23;10.32;;;14.50;99.90;;;;;;5091567;28;20032;-61
2023/04/16 17:26:44;;;;;;;20.23;12.15;;;14.30;99.90;;;;;;5092465;28;20036;-61
2023/04/16 17:29:09;;;;;;;18.20;10.32;;;14.00;99.90;;;;;;5092682;28;20095;-61
2023/04/16 17:31:35;;;;;;;20.13;10.75;;;13.80;99.90;;;;;;5090905;28;20024;-61
2023/04/16 17:34:03;;;;;;;17.67;11.20;;;13.60;99.90;;;;;;5092049;28;20461;-60
2023/04/16 17:36:30;;;;;;;20.95;10.90;;;13.50;99.90;;;;;;5092992;28;20081;-61
2023/04/16 17:38:56;;;;;;;21.85;10.88;;;13.40;99.90;;;;;;5093031;28;20067;-61
2023/04/16 17:41:22;;;;;;;23.25;12.40;;;13.20;99.90;;;;;;5092476;28;20081;-61
2023/04/16 17:43:48;;;;;;;18.73;11.30;;;13.00;99.90;;;;;;5092795;28;20032;-61
2023/04/16 17:46:14;;;;;;;24.33;11.48;;;12.90;99.90;;;;;;5093126;28;20124;-62
2023/04/16 17:48:40;;;;;;;22.13;11.68;;;12.90;99.90;;;;;;5091923;28;20095;-61
2023/04/16 17:51:13;;;;;;;27.90;11.55;;;12.80;99.90;;;;;;5092591;28;20028;-61
2023/04/16 17:53:41;;;;;;;20.90;11.68;;;12.60;99.90;;;;;;5093002;28;20461;-62
2023/04/16 17:56:07;;;;;;;22.45;12.55;;;12.60;99.90;;;;;;5092151;28;20073;-61
2023/04/16 17:58:34;;;;;;;20.60;11.35;;;12.50;99.90;;;;;;5092261;28;20024;-61
2023/04/16 18:01:00;;;;;;;23.08;11.50;;;12.40;99.90;;;;;;5092476;28;20426;-62
2023/04/16 18:03:26;;;;;;;23.63;11.55;;;12.30;99.90;;;;;;5092215;28;20024;-61
2023/04/16 18:05:51;;;;;;;20.60;11.30;;;12.30;99.90;;;;;;5090802;28;20058;-62
2023/04/16 18:08:17;;;;;;;19.60;11.45;;;12.30;99.90;;;;;;5091504;28;20024;-61
2023/04/16 18:10:42;;;;;;;21.63;12.55;;;12.20;99.90;;;;;;5092083;28;20088;-61
2023/04/16 18:13:08;;;;;;;20.65;12.80;;;12.10;99.90;;;;;;5092508;28;20016;-61
2023/04/16 18:15:37;;;;;;;21.10;13.50;;;12.10;99.90;;;;;;5090098;28;20028;-61
2023/04/16 18:18:03;;;;;;;22.48;11.88;;;12.00;99.90;;;;;;5092473;28;20399;-62
2023/04/16 18:20:29;;;;;;;29.17;13.40;;;11.90;99.90;;;;;;5091873;28;20028;-60
2023/04/16 18:22:55;;;;;;;19.15;11.93;;;11.80;99.90;;;;;;5091453;28;20098;-61
2023/04/16 18:25:20;;;;;;;21.73;12.70;;;11.70;99.90;;;;;;5090848;28;20032;-60
2023/04/16 18:27:46;;;;;;;22.45;12.52;;;11.60;99.90;;;;;;5091969;28;20127;-61
2023/04/16 18:30:13;;;;;;;24.70;13.45;;;11.60;99.90;;;;;;5090685;28;20089;-60
2023/04/16 18:32:38;;;;;;;25.60;12.55;;;11.60;99.90;;;;;;5090747;28;20424;-61
2023/04/16 18:35:05;;;;;;;20.92;13.73;;;11.60;99.90;;;;;;5091861;28;20058;-60
2023/04/16 18:37:32;;;;;;;23.00;13.10;;;11.60;99.90;;;;;;5090353;28;20060;-61
2023/04/16 18:39:58;;;;;;;21.80;14.02;;;11.50;99.90;;;;;;5090681;28;20081;-62
2023/04/16 18:42:26;;;;;;;20.33;12.68;;;11.40;99.90;;;;;;5092482;28;20020;-60
2023/04/16 18:44:53;;;;;;;25.85;14.25;;;11.40;99.90;;;;;;5092032;28;20448;-60
2023/04/16 18:47:18;;;;;;;24.58;13.95;;;11.40;99.90;;;;;;5091198;28;20095;-61
2023/04/16 18:49:44;;;;;;;22.30;13.88;;;11.30;99.90;;;;;;5092368;28;20044;-61
2023/04/16 18:52:10;;;;;;;26.55;14.23;;;11.30;99.90;;;;;;5091880;28;20067;-61
2023/04/16 18:54:35;;;;;;;28.17;14.55;;;11.20;99.90;;;;;;5092230;28;20028;-61
2023/04/16 18:57:02;;;;;;;24.80;14.90;;;11.20;99.90;;;;;;5092405;28;20054;-61
2023/04/16 18:59:27;;;;;;;28.20;14.77;;;11.20;99.90;;;;;;5091642;28;20020;-61
2023/04/16 19:01:53;;;;;;;28.63;14.73;;;11.20;99.90;;;;;;5092432;28;20499;-61
2023/04/16 19:04:19;;;;;;;29.10;15.10;;;11.20;99.90;;;;;;5092302;28;20027;-62
2023/04/16 19:06:44;;;;;;;23.65;14.60;;;11.20;99.90;;;;;;5091404;28;20107;-61
2023/04/16 19:09:11;;;;;;;27.20;14.38;;;11.20;99.90;;;;;;5092312;28;20412;-61
2023/04/16 19:11:36;;;;;;;29.17;14.98;;;11.10;99.90;;;;;;5090476;28;20021;-61
2023/04/16 19:14:04;;;;;;;26.98;14.98;;;11.10;99.90;;;;;;5092358;28;20024;-62
2023/04/16 19:16:29;;;;;;;30.92;16.50;;;11.10;99.90;;;;;;5091954;28;20031;-62
2023/04/16 19:18:55;;;;;;;29.42;16.67;;;11.10;99.90;;;;;;5091431;28;20016;-61
2023/04/16 19:21:21;;;;;;;29.25;16.55;;;11.10;99.90;;;;;;5092278;28;20377;-61
2023/04/16 19:23:47;;;;;;;32.92;16.60;;;11.10;99.90;;;;;;5091924;28;20103;-61
2023/04/16 19:26:13;;;;;;;29.73;18.08;;;11.00;99.90;;;;;;5091752;28;20495;-61
2023/04/16 19:28:41;;;;;;;28.95;15.98;;;11.00;99.90;;;;;;5095928;28;20020;-61
2023/04/16 19:31:07;;;;;;;27.17;16.77;;;11.00;99.90;;;;;;5095023;28;20477;-62
2023/04/16 19:33:33;;;;;;;28.20;16.73;;;11.00;99.90;;;;;;5094027;28;20016;-61
2023/04/16 19:36:00;;;;;;;30.50;18.98;;;10.90;99.90;;;;;;5095954;28;20065;-60
2023/04/16 19:38:26;;;;;;;35.35;18.27;;;11.00;99.90;;;;;;5095949;28;20126;-61
2023/04/16 19:40:51;;;;;;;30.95;15.93;;;11.00;99.90;;;;;;5094256;28;20536;-61
2023/04/16 19:43:17;;;;;;;33.30;18.10;;;10.90;99.90;;;;;;5095977;28;20024;-61
2023/04/16 19:45:51;;;;;;;30.70;18.05;;;10.90;99.90;;;;;;5095615;28;20036;-61
2023/04/16 19:48:17;;;;;;;28.92;16.77;;;11.00;99.90;;;;;;5095049;28;20111;-62
2023/04/16 19:50:43;;;;;;;32.95;17.40;;;11.00;99.90;;;;;;5095679;28;20020;-62
2023/04/16 19:53:09;;;;;;;33.83;16.98;;;10.90;99.90;;;;;;5095820;28;20438;-63
2023/04/16 19:55:35;;;;;;;33.15;16.60;;;10.90;99.90;;;;;;5094913;28;20042;-63
2023/04/16 19:58:04;;;;;;;31.73;17.80;;;10.90;99.90;;;;;;5095814;28;20024;-63
2023/04/16 20:00:36;;;;;;;31.45;15.77;;;10.90;99.90;;;;;;5095550;28;20015;-63
2023/04/16 20:03:02;;;;;;;32.72;16.73;;;10.90;99.90;;;;;;5095123;28;20162;-63
2023/04/16 20:05:28;;;;;;;28.20;16.38;;;10.90;99.90;;;;;;5095445;28;20048;-63
2023/04/16 20:07:54;;;;;;;33.75;17.02;;;10.90;99.90;;;;;;5094956;28;20423;-63
2023/04/16 20:10:21;;;;;;;31.27;18.25;;;10.90;99.90;;;;;;5095663;28;20095;-63
2023/04/16 20:12:46;;;;;;;31.80;17.05;;;10.90;99.90;;;;;;5094934;28;20371;-64
2023/04/16 20:15:12;;;;;;;35.88;18.90;;;10.80;99.90;;;;;;5094986;28;20024;-64
2023/04/16 20:17:38;;;;;;;30.20;16.80;;;10.90;99.90;;;;;;5095309;28;20034;-63
2023/04/16 20:20:08;;;;;;;31.50;18.92;;;10.90;99.90;;;;;;5096507;28;20028;-63
2023/04/16 20:22:38;;;;;;;31.33;17.02;;;10.90;99.90;;;;;;5093364;28;20020;-63
2023/04/16 20:25:05;;;;;;;32.92;17.50;;;10.80;99.90;;;;;;5095323;28;20047;-63
2023/04/16 20:27:31;;;;;;;33.20;17.58;;;10.80;99.90;;;;;;5095035;28;20020;-62
2023/04/16 20:29:58;;;;;;;33.42;17.65;;;10.80;99.90;;;;;;5094728;28;20055;-62
2023/04/16 20:32:24;;;;;;;32.25;17.08;;;10.90;99.90;;;;;;5094048;28;20065;-63
2023/04/16 20:34:49;;;;;;;31.35;16.83;;;10.80;99.90;;;;;;5094909;28;20405;-62
2023/04/16 20:37:15;;;;;;;30.30;17.55;;;10.80;99.90;;;;;;5093871;28;20024;-62
2023/04/16 20:39:41;;;;;;;33.70;19.30;;;10.80;99.90;;;;;;5094597;28;20032;-63
2023/04/16 20:42:09;;;;;;;35.50;18.33;;;10.80;99.90;;;;;;5095039;28;20023;-62
2023/04/16 20:44:49;;;;;;;35.25;17.88;;;10.80;99.90;;;;;;5093840;28;20031;-62
2023/04/16 20:47:15;;;;;;;31.05;18.05;;;10.80;99.90;;;;;;5093594;28;20035;-63
2023/04/16 20:49:47;;;;;;;36.88;17.88;;;10.70;99.90;;;;;;5092856;28;20016;-63
2023/04/16 20:52:13;;;;;;;28.77;17.40;;;10.70;99.90;;;;;;5094047;28;20032;-62
2023/04/16 20:54:39;;;;;;;32.80;17.70;;;10.60;99.90;;;;;;5094591;28;20073;-62
2023/04/16 20:57:05;;;;;;;32.63;18.65;;;10.60;99.90;;;;;;5092703;28;20028;-62
2023/04/16 20:59:30;;;;;;;36.10;20.63;;;10.60;99.90;;;;;;5093924;28;20487;-62
2023/04/16 21:01:57;;;;;;;39.20;19.10;;;10.60;99.90;;;;;;5094565;28;20067;-62
2023/04/16 21:04:22;;;;;;;31.17;18.02;;;10.50;99.90;;;;;;5093419;28;20016;-63
2023/04/16 21:06:52;;;;;;;33.80;17.77;;;10.50;99.90;;;;;;5094094;28;20050;-62
2023/04/16 21:09:18;;;;;;;30.35;17.00;;;10.50;99.90;;;;;;5092965;28;20027;-62
2023/04/16 21:11:43;;;;;;;34.55;18.38;;;10.40;99.90;;;;;;5093360;28;20028;-63
2023/04/16 21:14:09;;;;;;;32.22;17.98;;;10.40;99.90;;;;;;5094208;28;20024;-63
2023/04/16 21:16:35;;;;;;;36.50;19.17;;;10.40;99.90;;;;;;5093843;28;20019;-62
2023/04/16 21:19:00;;;;;;;30.25;18.77;;;10.40;99.90;;;;;;5092064;28;20050;-62
2023/04/16 21:21:26;;;;;;;30.48;17.85;;;10.30;99.90;;;;;;5093891;28;20093;-62
2023/04/16 21:23:51;;;;;;;34.65;18.52;;;10.30;99.90;;;;;;5094001;28;20020;-62
2023/04/16 21:26:17;;;;;;;34.03;18.27;;;10.20;99.90;;;;;;5091842;28;20050;-62
2023/04/16 21:28:43;;;;;;;36.22;18.00;;;10.20;99.90;;;;;;5092489;28;20020;-63
2023/04/16 21:31:08;;;;;;;35.50;18.65;;;10.20;99.90;;;;;;5093882;28;20028;-63
2023/04/16 21:33:34;;;;;;;35.75;19.33;;;10.30;99.90;;;;;;5092918;28;20060;-63
2023/04/16 21:36:00;;;;;;;34.05;18.58;;;10.30;99.90;;;;;;5092344;28;20052;-63
2023/04/16 21:38:26;;;;;;;30.80;18.38;;;10.20;99.90;;;;;;5092338;28;20516;-63
2023/04/16 21:40:55;;;;;;;34.60;20.08;;;10.20;99.90;;;;;;5092960;28;20028;-64
2023/04/16 21:43:25;;;;;;;34.47;18.00;;;10.20;99.90;;;;;;5093881;28;20032;-64
2023/04/16 21:45:53;;;;;;;31.20;18.67;;;10.20;99.90;;;;;;5093165;28;20087;-64
2023/04/16 21:48:20;;;;;;;38.42;19.75;;;10.20;99.90;;;;;;5093080;28;20016;-64
2023/04/16 21:50:46;;;;;;;32.88;18.10;;;10.10;99.90;;;;;;5092502;28;20038;-63
2023/04/16 21:53:11;;;;;;;35.08;17.98;;;10.10;99.90;;;;;;5092071;28;20012;-63
2023/04/16 21:55:39;;;;;;;35.53;18.75;;;10.10;99.90;;;;;;5092606;28;20143;-63
2023/04/16 21:58:05;;;;;;;36.20;20.00;;;10.10;99.90;;;;;;5091798;28;20020;-63
2023/04/16 22:00:31;;;;;;;37.17;20.27;;;10.10;99.90;;;;;;5091274;28;20020;-63
2023/04/16 22:02:58;;;;;;;34.33;19.63;;;10.10;99.90;;;;;;5093266;28;20028;-63
2023/04/16 22:05:24;;;;;;;36.20;19.17;;;10.10;99.90;;;;;;5092956;28;20048;-63
2023/04/16 22:07:51;;;;;;;36.25;19.55;;;10.00;99.90;;;;;;5091062;28;20034;-63
2023/04/16 22:10:17;;;;;;;34.28;18.25;;;10.00;99.90;;;;;;5093072;28;20028;-64
2023/04/16 22:12:46;;;;;;;36.95;19.25;;;10.00;99.90;;;;;;5091666;28;20377;-64
2023/04/16 22:15:12;;;;;;;38.40;19.33;;;10.00;99.90;;;;;;5093023;28;20099;-64
2023/04/16 22:17:39;;;;;;;40.83;20.58;;;10.00;99.90;;;;;;5092827;28;20054;-65
2023/04/16 22:20:08;;;;;;;36.35;18.73;;;9.90;99.90;;;;;;5093341;28;20016;-63
2023/04/16 22:22:34;;;;;;;41.53;19.88;;;9.80;99.90;;;;;;5092276;28;20027;-64
2023/04/16 22:25:00;;;;;;;39.92;19.40;;;9.80;99.90;;;;;;5093239;28;20023;-64
2023/04/16 22:27:26;;;;;;;30.38;18.52;;;9.70;99.90;;;;;;5093038;28;20372;-63
2023/04/16 22:29:52;;;;;;;36.47;18.58;;;9.70;99.90;;;;;;5092210;28;20028;-63
2023/04/16 22:32:17;;;;;;;33.85;18.45;;;9.70;99.90;;;;;;5093082;28;20087;-63
2023/04/16 22:34:43;;;;;;;32.65;18.85;;;9.70;99.90;;;;;;5092435;28;20080;-63
2023/04/16 22:37:08;;;;;;;37.38;18.58;;;9.70;99.90;;;;;;5092457;28;20020;-62
2023/04/16 22:39:34;;;;;;;34.00;17.80;;;9.60;99.90;;;;;;5092474;28;20099;-62
2023/04/16 22:42:00;;;;;;;33.40;18.70;;;9.70;99.90;;;;;;5092971;28;20487;-64
2023/04/16 22:44:26;;;;;;;35.17;18.33;;;9.60;99.90;;;;;;5090572;28;20039;-61
2023/04/16 22:46:51;;;;;;;33.20;18.73;;;9.60;99.90;;;;;;5092715;28;20032;-61
2023/04/16 22:49:17;;;;;;;28.85;17.52;;;9.60;99.90;;;;;;5092550;28;20028;-62
2023/04/16 22:51:43;;;;;;;30.75;18.10;;;9.60;99.90;;;;;;5091695;28;20024;-61
2023/04/16 22:54:10;;;;;;;33.08;18.92;;;9.60;99.90;;;;;;5092495;28;20027;-61
2023/04/16 22:56:37;;;;;;;32.55;17.85;;;9.60;99.90;;;;;;5091806;28;20017;-61
2023/04/16 22:59:04;;;;;;;32.80;18.77;;;9.60;99.90;;;;;;5092100;28;20020;-62
2023/04/16 23:01:30;;;;;;;33.83;19.27;;;9.60;99.90;;;;;;5091919;28;20020;-61
2023/04/16 23:03:56;;;;;;;33.08;19.17;;;9.60;99.90;;;;;;5090358;28;20020;-64
2023/04/16 23:06:21;;;;;;;40.13;20.90;;;9.60;99.90;;;;;;5091972;28;20070;-61
2023/04/16 23:08:47;;;;;;;35.85;19.88;;;9.60;99.90;;;;;;5090882;28;20021;-61
2023/04/16 23:11:12;;;;;;;31.17;16.73;;;9.60;99.90;;;;;;5091527;28;20024;-61
2023/04/16 23:13:38;;;;;;;35.72;20.38;;;9.60;99.90;;;;;;5092057;28;20024;-61
2023/04/16 23:16:04;;;;;;;34.25;18.13;;;9.60;99.90;;;;;;5092295;28;20503;-61
2023/04/16 23:18:30;;;;;;;41.28;19.63;;;9.60;99.90;;;;;;5091228;28;20122;-62
2023/04/16 23:20:56;;;;;;;35.67;19.20;;;9.60;99.90;;;;;;5092090;28;20459;-62
2023/04/16 23:23:21;;;;;;;36.03;19.48;;;9.70;99.90;;;;;;5091992;28;20474;-61
2023/04/16 23:25:47;;;;;;;41.53;20.23;;;9.60;99.90;;;;;;5091025;28;20085;-62
2023/04/16 23:28:12;;;;;;;36.83;19.38;;;9.60;99.90;;;;;;5090109;28;20032;-62
2023/04/16 23:30:38;;;;;;;37.78;19.02;;;9.60;99.90;;;;;;5091196;28;20047;-61